Time;durP1;ratioP1;P1;durP2;ratioP2;P2;SDS_P1;SDS_P2;PMS_P1;PMS_P2;Temp;Humidity;BMP_temperature;BMP_pressure;BME280_temperature;BME280_humidity;BME280_pressure;Samples;Min_cycle;Max_cycle;Signal;HPM_P1;HPM_P2
2022/10/15 00:02:07;;;;;;;7.30;3.53;;;;;;;9.41;100.00;99962.81;5041981;28;20031;-57
2022/10/15 00:04:32;;;;;;;8.48;4.15;;;;;;;9.41;100.00;99960.16;5038663;28;20033;-55
2022/10/15 00:06:58;;;;;;;6.63;4.28;;;;;;;9.42;100.00;99964.44;5039081;28;20028;-58
2022/10/15 00:09:24;;;;;;;8.30;5.22;;;;;;;9.39;100.00;99953.22;5036818;28;20367;-57
2022/10/15 00:11:50;;;;;;;10.52;3.67;;;;;;;9.40;100.00;99951.41;5042541;28;20175;-56
2022/10/15 00:14:15;;;;;;;6.65;3.50;;;;;;;9.37;100.00;99944.69;5041306;28;20045;-56
2022/10/15 00:16:41;;;;;;;4.10;2.95;;;;;;;9.37;100.00;99938.53;5036376;28;20386;-56
2022/10/15 00:19:06;;;;;;;27.98;5.55;;;;;;;9.36;100.00;99939.56;5047289;28;20021;-51
2022/10/15 00:21:31;;;;;;;6.40;3.67;;;;;;;9.37;100.00;99935.91;5039061;28;20406;-50
2022/10/15 00:23:57;;;;;;;5.53;3.35;;;;;;;9.36;100.00;99931.63;5042873;28;20053;-54
2022/10/15 00:26:25;;;;;;;3.45;2.97;;;;;;;9.38;100.00;99927.78;5038818;28;20063;-53
2022/10/15 00:28:53;;;;;;;4.53;2.78;;;;;;;9.39;100.00;99925.94;5049086;28;20072;-54
2022/10/15 00:31:19;;;;;;;4.35;3.35;;;;;;;9.40;100.00;99930.25;5038789;28;20025;-51
2022/10/15 00:33:48;;;;;;;4.82;3.15;;;;;;;9.43;100.00;99921.09;5052715;28;20474;-51
2022/10/15 00:36:16;;;;;;;3.53;3.22;;;;;;;9.43;100.00;99924.56;5059419;28;20081;-52
2022/10/15 00:38:42;;;;;;;4.95;4.03;;;;;;;9.42;100.00;99924.72;5046775;28;20025;-52
2022/10/15 00:41:13;;;;;;;7.57;4.95;;;;;;;9.43;100.00;99915.81;5051331;28;20392;-55
2022/10/15 00:43:38;;;;;;;10.95;4.13;;;;;;;9.41;100.00;99915.97;5045479;28;20041;-51
2022/10/15 00:46:05;;;;;;;5.53;3.80;;;;;;;9.38;100.00;99913.75;5050077;28;20028;-52
2022/10/15 00:48:31;;;;;;;5.72;2.80;;;;;;;9.34;100.00;99910.66;5042161;28;20033;-57
2022/10/15 00:51:02;;;;;;;4.15;2.95;;;;;;;9.34;100.00;99896.63;5045393;28;20540;-57
2022/10/15 00:53:27;;;;;;;4.95;2.42;;;;;;;9.32;100.00;99901.28;5046885;28;20022;-56
2022/10/15 00:55:53;;;;;;;4.75;3.45;;;;;;;9.28;100.00;99886.81;5050266;28;20094;-57
2022/10/15 00:58:27;;;;;;;3.97;1.98;;;;;;;9.29;100.00;99886.66;5045177;28;20044;-57
2022/10/15 01:00:53;;;;;;;4.20;3.25;;;;;;;9.29;100.00;99873.41;5048958;28;20451;-54
2022/10/15 01:03:19;;;;;;;2.75;2.22;;;;;;;9.28;100.00;99871.78;5037834;28;20483;-58
2022/10/15 01:05:48;;;;;;;3.53;2.03;;;;;;;9.31;100.00;99879.31;5037688;28;20025;-54
2022/10/15 01:08:13;;;;;;;3.53;1.73;;;;;;;9.31;100.00;99871.38;5041937;28;20036;-54
2022/10/15 01:10:54;;;;;;;5.20;3.05;;;;;;;9.34;100.00;99859.56;5039152;28;20041;-53
2022/10/15 01:13:34;;;;;;;3.95;2.72;;;;;;;9.35;100.00;99854.09;5041573;28;20025;-52
2022/10/15 01:16:40;;;;;;;3.42;2.13;;;;;;;9.36;100.00;99846.97;5042154;28;20110;-58
2022/10/15 01:19:36;;;;;;;2.97;2.58;;;;;;;9.36;100.00;99853.06;5057657;28;20122;-56
2022/10/15 01:22:27;;;;;;;4.03;3.20;;;;;;;9.37;100.00;99838.84;5043190;28;20037;-55
2022/10/15 01:24:55;;;;;;;7.32;3.78;;;;;;;9.36;100.00;99837.19;5042987;28;20034;-57
2022/10/15 01:27:27;;;;;;;14.77;3.58;;;;;;;9.34;100.00;99836.56;5043091;28;20494;-55
2022/10/15 01:30:15;;;;;;;5.90;3.03;;;;;;;9.34;100.00;99833.94;5043080;28;20021;-52
2022/10/15 01:33:09;;;;;;;7.50;3.25;;;;;;;9.31;100.00;99829.03;5040971;28;20457;-52
2022/10/15 01:35:50;;;;;;;3.47;2.30;;;;;;;9.28;100.00;99829.44;5043068;28;20049;-52
2022/10/15 01:38:20;;;;;;;8.77;2.03;;;;;;;9.26;100.00;99820.88;5043468;28;20043;-54
2022/10/15 01:41:00;;;;;;;19.52;3.55;;;;;;;9.24;100.00;99815.00;5044696;28;20021;-56
2022/10/15 01:43:50;;;;;;;6.93;2.50;;;;;;;9.27;100.00;99806.66;5040763;28;20029;-52
2022/10/15 01:46:30;;;;;;;7.40;2.97;;;;;;;9.25;100.00;99800.75;5033786;28;20136;-56
2022/10/15 01:48:58;;;;;;;10.07;2.40;;;;;;;9.28;100.00;99796.88;5038805;28;20029;-53
2022/10/15 01:51:26;;;;;;;10.70;2.45;;;;;;;9.27;100.00;99788.13;5045503;28;20035;-55
2022/10/15 01:53:52;;;;;;;12.02;2.70;;;;;;;9.27;100.00;99780.19;5036318;28;20029;-56
2022/10/15 01:56:21;;;;;;;4.05;2.17;;;;;;;9.30;100.00;99786.94;5037475;28;20024;-51
2022/10/15 01:58:49;;;;;;;7.25;2.33;;;;;;;9.29;100.00;99788.75;5044596;28;20028;-58
2022/10/15 02:01:15;;;;;;;7.20;2.72;;;;;;;9.29;100.00;99785.28;5044988;28;20024;-54
2022/10/15 02:03:45;;;;;;;13.05;2.83;;;;;;;9.31;100.00;99778.78;5045367;28;20044;-52
2022/10/15 02:06:19;;;;;;;7.68;2.25;;;;;;;9.32;100.00;99777.78;5036585;28;20442;-57
2022/10/15 02:08:56;;;;;;;5.72;2.30;;;;;;;9.34;100.00;99777.56;5048589;28;20374;-56
2022/10/15 02:11:21;;;;;;;8.32;2.70;;;;;;;9.32;100.00;99776.94;5034952;28;20033;-54
2022/10/15 02:13:51;;;;;;;9.60;1.92;;;;;;;9.33;100.00;99766.16;5048725;28;20114;-57
2022/10/15 02:16:27;;;;;;;10.60;3.95;;;;;;;9.34;100.00;99749.25;5045925;28;20020;-53
2022/10/15 02:19:05;;;;;;;4.18;2.65;;;;;;;9.33;100.00;99746.84;5044562;28;20148;-54
2022/10/15 02:22:11;;;;;;;13.73;4.80;;;;;;;9.37;100.00;99746.25;5040525;28;20068;-56
2022/10/15 02:24:48;;;;;;;18.92;4.78;;;;;;;9.37;100.00;99743.59;5036281;28;20454;-53
2022/10/15 02:27:15;;;;;;;10.75;4.45;;;;;;;9.38;100.00;99734.63;5046080;28;20606;-57
2022/10/15 02:29:43;;;;;;;9.23;3.90;;;;;;;9.38;100.00;99737.28;5051186;28;20021;-53
2022/10/15 02:32:10;;;;;;;8.07;4.47;;;;;;;9.39;100.00;99725.66;5050893;28;20029;-57
2022/10/15 02:34:36;;;;;;;5.30;3.38;;;;;;;9.40;100.00;99723.88;5053857;28;20029;-55
2022/10/15 02:37:04;;;;;;;9.70;4.45;;;;;;;9.43;100.00;99718.16;5046171;28;20037;-51
2022/10/15 02:39:30;;;;;;;6.93;4.18;;;;;;;9.43;100.00;99718.16;5040854;28;20025;-56
2022/10/15 02:41:56;;;;;;;12.32;4.50;;;;;;;9.43;100.00;99714.72;5053658;28;20432;-51
2022/10/15 02:44:22;;;;;;;17.58;5.20;;;;;;;9.42;100.00;99726.28;5044925;28;20035;-52
2022/10/15 02:46:47;;;;;;;6.82;5.60;;;;;;;9.43;100.00;99725.28;5049470;28;20116;-54
2022/10/15 02:49:12;;;;;;;6.25;4.32;;;;;;;9.43;100.00;99722.66;5055008;28;20210;-55
2022/10/15 02:51:38;;;;;;;6.05;4.28;;;;;;;9.42;100.00;99713.88;5050823;28;20032;-54
2022/10/15 02:54:05;;;;;;;12.15;6.32;;;;;;;9.43;100.00;99726.09;5048950;28;20025;-58
2022/10/15 02:56:30;;;;;;;7.97;4.75;;;;;;;9.42;100.00;99721.81;5043137;28;20033;-57
2022/10/15 02:58:56;;;;;;;6.43;4.35;;;;;;;9.43;100.00;99720.81;5057916;28;20033;-53
2022/10/15 03:01:21;;;;;;;7.40;5.00;;;;;;;9.43;100.00;99714.72;5042702;28;20029;-54
2022/10/15 03:03:46;;;;;;;7.50;4.53;;;;;;;9.43;100.00;99709.41;5045487;28;20029;-53
2022/10/15 03:06:12;;;;;;;9.32;4.50;;;;;;;9.43;100.00;99707.56;5047078;28;20068;-55
2022/10/15 03:08:37;;;;;;;7.47;4.45;;;;;;;9.40;100.00;99700.03;5056966;28;20043;-55
2022/10/15 03:11:02;;;;;;;4.45;4.00;;;;;;;9.37;100.00;99693.31;5040140;28;20028;-56
2022/10/15 03:13:28;;;;;;;9.68;3.70;;;;;;;9.36;100.00;99698.81;5049709;28;20041;-56
2022/10/15 03:15:54;;;;;;;5.15;3.28;;;;;;;9.33;100.00;99701.88;5044930;28;20031;-52
2022/10/15 03:18:20;;;;;;;5.13;4.40;;;;;;;9.34;100.00;99704.28;5043559;28;20040;-51
2022/10/15 03:20:55;;;;;;;5.00;4.40;;;;;;;9.37;100.00;99697.78;5051266;28;20018;-58
2022/10/15 03:23:21;;;;;;;4.78;3.25;;;;;;;9.36;100.00;99701.44;5051908;28;20115;-58
2022/10/15 03:25:46;;;;;;;3.83;3.28;;;;;;;9.33;100.00;99704.50;5046240;28;20569;-53
2022/10/15 03:28:12;;;;;;;3.78;2.72;;;;;;;9.32;100.00;99709.00;5036400;28;20088;-57
2022/10/15 03:30:37;;;;;;;6.47;3.28;;;;;;;9.34;100.00;99692.91;5058404;28;20482;-58
2022/10/15 03:33:02;;;;;;;6.97;3.55;;;;;;;9.35;100.00;99689.25;5054576;28;20187;-56
2022/10/15 03:35:28;;;;;;;5.38;3.40;;;;;;;9.30;100.00;99681.91;5039601;28;20034;-57
2022/10/15 03:37:53;;;;;;;8.38;4.93;;;;;;;9.29;100.00;99677.66;5044812;28;20025;-53
2022/10/15 03:40:18;;;;;;;5.38;4.03;;;;;;;9.28;100.00;99673.38;5047666;28;20040;-57
2022/10/15 03:42:49;;;;;;;4.63;3.30;;;;;;;9.32;100.00;99671.13;5041201;28;20044;-54
2022/10/15 03:45:14;;;;;;;7.95;3.30;;;;;;;9.31;100.00;99669.50;5040736;28;20028;-56
2022/10/15 03:47:40;;;;;;;5.13;3.63;;;;;;;9.31;100.00;99678.25;5038333;28;20442;-51
2022/10/15 03:50:05;;;;;;;10.43;4.70;;;;;;;9.31;100.00;99667.66;5045583;28;20389;-53
2022/10/15 03:52:30;;;;;;;5.53;3.53;;;;;;;9.33;100.00;99663.00;5029679;28;20052;-52
2022/10/15 03:54:56;;;;;;;3.35;3.10;;;;;;;9.34;100.00;99664.59;5045783;28;20021;-55
2022/10/15 03:57:21;;;;;;;5.20;3.35;;;;;;;9.35;100.00;99654.88;5044475;28;20470;-52
2022/10/15 03:59:46;;;;;;;4.28;3.78;;;;;;;9.37;100.00;99658.09;5055558;28;20500;-51
2022/10/15 04:02:12;;;;;;;5.82;4.20;;;;;;;9.37;100.00;99653.66;5052813;28;20084;-53
2022/10/15 04:04:37;;;;;;;8.63;4.35;;;;;;;9.39;100.00;99648.13;5039711;28;20048;-57
2022/10/15 04:07:03;;;;;;;3.50;3.05;;;;;;;9.39;100.00;99641.00;5037562;28;20033;-54
2022/10/15 04:09:28;;;;;;;5.57;3.30;;;;;;;9.41;100.00;99632.88;5044438;28;20029;-54
2022/10/15 04:11:53;;;;;;;4.43;3.75;;;;;;;9.44;100.00;99631.66;5037021;28;20112;-55
2022/10/15 04:14:19;;;;;;;5.68;3.42;;;;;;;9.49;100.00;99635.31;5043628;28;20061;-58
2022/10/15 04:16:44;;;;;;;5.15;3.30;;;;;;;9.51;100.00;99645.69;5041324;28;20040;-58
2022/10/15 04:19:09;;;;;;;6.97;2.97;;;;;;;9.53;100.00;99641.84;5039000;28;20469;-54
2022/10/15 04:21:35;;;;;;;3.85;3.55;;;;;;;9.56;100.00;99638.78;5049733;28;21137;-56
2022/10/15 04:24:00;;;;;;;4.53;2.58;;;;;;;9.58;100.00;99630.63;5050215;28;20052;-57
2022/10/15 04:26:25;;;;;;;6.43;2.60;;;;;;;9.58;100.00;99628.00;5043947;28;20033;-53
2022/10/15 04:28:51;;;;;;;5.05;3.70;;;;;;;9.58;100.00;99630.63;5051153;28;20103;-56
2022/10/15 04:31:16;;;;;;;4.20;2.88;;;;;;;9.58;100.00;99620.84;5051557;28;20016;-55
2022/10/15 04:33:41;;;;;;;5.10;2.45;;;;;;;9.58;100.00;99623.50;5046292;28;20055;-57
2022/10/15 04:36:11;;;;;;;3.38;2.63;;;;;;;9.61;100.00;99625.75;5042093;28;20037;-58
2022/10/15 04:38:37;;;;;;;5.75;3.45;;;;;;;9.60;100.00;99624.13;5045955;28;21962;-55
2022/10/15 04:41:05;;;;;;;4.45;2.95;;;;;;;9.61;100.00;99619.63;5039998;28;20117;-55
2022/10/15 04:43:31;;;;;;;5.55;2.67;;;;;;;9.60;100.00;99621.47;5040856;28;20091;-58
2022/10/15 04:45:58;;;;;;;4.43;2.50;;;;;;;9.60;100.00;99615.34;5039618;28;20037;-54
2022/10/15 04:48:26;;;;;;;3.90;2.53;;;;;;;9.59;100.00;99613.72;5039007;28;20496;-56
2022/10/15 04:50:51;;;;;;;2.72;2.38;;;;;;;9.57;100.00;99616.56;5052289;28;20033;-51
2022/10/15 04:53:17;;;;;;;8.23;4.10;;;;;;;9.58;100.00;99607.63;5041679;28;20344;-50
2022/10/15 04:55:42;;;;;;;7.10;3.25;;;;;;;9.57;100.00;99616.56;5046863;28;20024;-51
2022/10/15 04:58:07;;;;;;;4.95;3.33;;;;;;;9.57;100.00;99618.41;5048660;28;20101;-51
2022/10/15 05:00:33;;;;;;;6.20;3.65;;;;;;;9.53;100.00;99614.56;5037426;28;20061;-53
2022/10/15 05:02:58;;;;;;;6.93;3.80;;;;;;;9.51;100.00;99617.41;5044327;28;20036;-53
2022/10/15 05:05:23;;;;;;;4.90;3.80;;;;;;;9.49;100.00;99616.78;5051894;28;20024;-52
2022/10/15 05:07:49;;;;;;;5.15;3.08;;;;;;;9.48;100.00;99614.34;5040758;28;20048;-56
2022/10/15 05:10:14;;;;;;;4.63;3.25;;;;;;;9.47;100.00;99620.66;5034089;28;20100;-57
2022/10/15 05:12:40;;;;;;;5.60;2.90;;;;;;;9.47;100.00;99618.00;5043447;28;20033;-51
2022/10/15 05:15:05;;;;;;;4.38;3.72;;;;;;;9.45;100.00;99610.28;5056758;28;20025;-55
2022/10/15 05:17:31;;;;;;;4.53;2.80;;;;;;;9.45;100.00;99615.59;5047455;28;20612;-56
2022/10/15 05:19:56;;;;;;;10.27;4.15;;;;;;;9.45;100.00;99606.81;5050407;28;20044;-57
2022/10/15 05:22:21;;;;;;;5.25;2.80;;;;;;;9.43;100.00;99612.31;5034903;28;20029;-54
2022/10/15 05:24:47;;;;;;;2.40;2.20;;;;;;;9.45;100.00;99612.09;5047607;28;20497;-54
2022/10/15 05:27:12;;;;;;;4.13;2.22;;;;;;;9.42;100.00;99601.94;5042497;28;20166;-55
2022/10/15 05:29:38;;;;;;;5.93;3.03;;;;;;;9.42;100.00;99607.22;5044636;28;20112;-54
2022/10/15 05:32:04;;;;;;;3.60;3.30;;;;;;;9.43;100.00;99607.03;5036918;28;20029;-56
2022/10/15 05:34:30;;;;;;;3.63;2.75;;;;;;;9.45;100.00;99602.34;5044262;28;20043;-52
2022/10/15 05:36:55;;;;;;;2.92;2.60;;;;;;;9.44;100.00;99599.91;5044408;28;20510;-55
2022/10/15 05:39:20;;;;;;;7.47;3.50;;;;;;;9.44;100.00;99594.59;5041748;28;20042;-56
2022/10/15 05:41:46;;;;;;;6.15;3.63;;;;;;;9.45;100.00;99591.78;5052285;28;20405;-57
2022/10/15 05:44:11;;;;;;;3.03;2.67;;;;;;;9.45;100.00;99591.78;5041944;28;20485;-55
2022/10/15 05:46:37;;;;;;;7.60;3.90;;;;;;;9.43;100.00;99591.16;5045482;28;20052;-58
2022/10/15 05:49:02;;;;;;;3.58;2.30;;;;;;;9.46;100.00;99595.22;5045404;28;20041;-55
2022/10/15 05:51:28;;;;;;;5.45;3.65;;;;;;;9.44;100.00;99597.25;5043652;28;20108;-53
2022/10/15 05:53:54;;;;;;;9.85;3.40;;;;;;;9.46;100.00;99596.03;5046271;28;20041;-50
2022/10/15 05:56:20;;;;;;;7.03;3.15;;;;;;;9.48;100.00;99607.22;5038274;28;20025;-51
2022/10/15 05:58:45;;;;;;;4.57;3.92;;;;;;;9.48;100.00;99614.34;5032887;28;20442;-52
2022/10/15 06:01:11;;;;;;;3.53;3.08;;;;;;;9.50;100.00;99610.50;5034246;28;20025;-51
2022/10/15 06:03:38;;;;;;;4.85;2.92;;;;;;;9.51;100.00;99601.53;5037713;28;20095;-54
2022/10/15 06:06:04;;;;;;;2.75;2.22;;;;;;;9.52;100.00;99602.34;5036590;28;20095;-56
2022/10/15 06:08:30;;;;;;;5.78;3.22;;;;;;;9.53;100.00;99598.69;5036877;28;20046;-58
2022/10/15 06:11:02;;;;;;;6.30;3.85;;;;;;;9.54;100.00;99600.28;5031630;28;20405;-57
2022/10/15 06:13:27;;;;;;;5.43;3.03;;;;;;;9.51;100.00;99598.06;5031292;28;20102;-58
2022/10/15 06:15:53;;;;;;;4.63;3.17;;;;;;;9.55;100.00;99596.63;5032448;28;20024;-54
2022/10/15 06:18:18;;;;;;;4.40;2.90;;;;;;;9.60;100.00;99596.81;5037899;28;20478;-53
2022/10/15 06:20:49;;;;;;;4.45;2.45;;;;;;;9.62;100.00;99592.13;5034864;28;20037;-56
2022/10/15 06:23:14;;;;;;;2.72;1.80;;;;;;;9.61;100.00;99598.47;5032050;28;20025;-57
2022/10/15 06:25:40;;;;;;;12.32;5.95;;;;;;;9.61;100.00;99601.09;5032618;28;20078;-55
2022/10/15 06:28:06;;;;;;;5.45;2.30;;;;;;;9.64;100.00;99595.41;5035083;28;20072;-56
2022/10/15 06:30:31;;;;;;;4.05;2.83;;;;;;;9.61;100.00;99596.63;5048011;28;20083;-53
2022/10/15 06:32:57;;;;;;;2.78;1.40;;;;;;;9.64;100.00;99595.41;5049697;28;20483;-53
2022/10/15 06:35:24;;;;;;;7.28;2.40;;;;;;;9.69;100.00;99584.19;5039303;28;20043;-54
2022/10/15 06:37:50;;;;;;;4.13;1.83;;;;;;;9.73;100.00;99591.53;5037358;28;20028;-56
2022/10/15 06:40:15;;;;;;;2.47;1.30;;;;;;;9.68;100.00;99585.19;5041068;28;20021;-55
2022/10/15 06:42:41;;;;;;;7.47;2.17;;;;;;;9.66;100.00;99590.72;5038760;28;20036;-52
2022/10/15 06:45:11;;;;;;;5.03;2.67;;;;;;;9.67;100.00;99592.34;5041319;28;20030;-56
2022/10/15 06:47:37;;;;;;;2.58;1.70;;;;;;;9.71;100.00;99590.91;5043847;28;20064;-56
2022/10/15 06:50:04;;;;;;;3.03;1.90;;;;;;;9.75;100.00;99596.59;5045922;28;20017;-55
2022/10/15 06:52:30;;;;;;;6.35;1.55;;;;;;;9.78;100.00;99599.66;5038912;28;20159;-57
2022/10/15 06:54:55;;;;;;;5.60;2.35;;;;;;;9.73;100.00;99593.34;5040192;28;20518;-54
2022/10/15 06:57:21;;;;;;;2.30;1.98;;;;;;;9.69;100.00;99598.25;5039670;28;20025;-53
2022/10/15 06:59:46;;;;;;;5.60;2.15;;;;;;;9.71;100.00;99590.09;5044522;28;20433;-54
2022/10/15 07:02:13;;;;;;;7.85;2.58;;;;;;;9.72;100.00;99597.81;5040521;28;20382;-54
2022/10/15 07:04:39;;;;;;;13.80;3.35;;;;;;;9.74;100.00;99608.22;5028456;28;20118;-57
2022/10/15 07:07:04;;;;;;;2.05;1.50;;;;;;;9.83;100.00;99605.16;5037110;28;20502;-53
2022/10/15 07:09:30;;;;;;;5.75;2.40;;;;;;;9.93;100.00;99610.00;5036492;28;20033;-56
2022/10/15 07:11:55;;;;;;;3.40;2.22;;;;;;;10.01;100.00;99616.91;5041822;28;20025;-53
2022/10/15 07:14:21;;;;;;;4.57;1.83;;;;;;;10.05;100.00;99613.63;5036913;28;20368;-51
2022/10/15 07:16:46;;;;;;;1.48;1.10;;;;;;;10.15;100.00;99617.69;5040827;28;20029;-52
2022/10/15 07:19:11;;;;;;;1.75;1.15;;;;;;;10.17;100.00;99618.25;5040643;28;20609;-54
2022/10/15 07:21:37;;;;;;;1.65;0.75;;;;;;;10.07;100.00;99629.31;5044944;28;20437;-53
2022/10/15 07:24:02;;;;;;;2.35;1.10;;;;;;;9.97;100.00;99623.66;5045727;28;20059;-53
2022/10/15 07:26:29;;;;;;;3.53;0.80;;;;;;;9.93;100.00;99635.66;5040880;28;20017;-55
2022/10/15 07:28:55;;;;;;;8.85;1.55;;;;;;;9.96;100.00;99632.59;5036296;28;20056;-55
2022/10/15 07:31:21;;;;;;;3.25;0.80;;;;;;;9.93;100.00;99628.53;5038351;28;20028;-55
2022/10/15 07:33:46;;;;;;;3.22;1.30;;;;;;;9.89;100.00;99624.69;5042326;28;20378;-51
2022/10/15 07:36:12;;;;;;;0.85;0.68;;;;;;;9.87;100.00;99626.72;5039923;28;20104;-57
2022/10/15 07:38:39;;;;;;;4.28;1.15;;;;;;;9.83;100.00;99626.34;5037947;28;20041;-52
2022/10/15 07:41:06;;;;;;;4.75;0.60;;;;;;;9.83;100.00;99641.38;5037698;28;20027;-53
2022/10/15 07:43:33;;;;;;;2.33;0.77;;;;;;;9.82;100.00;99631.81;5042175;28;20020;-51
2022/10/15 07:45:58;;;;;;;1.50;0.50;;;;;;;9.89;100.00;99639.75;5042127;28;20037;-52
2022/10/15 07:48:24;;;;;;;2.45;0.60;;;;;;;10.00;100.00;99641.75;5035131;28;20057;-57
2022/10/15 07:50:56;;;;;;;2.33;1.00;;;;;;;10.11;100.00;99649.06;5043434;28;20071;-54
2022/10/15 07:53:22;;;;;;;1.80;0.43;;;;;;;10.14;100.00;99632.75;5041313;28;20046;-56
2022/10/15 07:55:47;;;;;;;1.38;0.63;;;;;;;10.18;100.00;99638.44;5040810;28;20028;-56
2022/10/15 07:58:13;;;;;;;0.50;0.50;;;;;;;10.27;100.00;99645.13;5044671;28;20032;-50
2022/10/15 08:00:38;;;;;;;1.30;0.75;;;;;;;10.39;100.00;99635.53;5045871;28;20029;-53
2022/10/15 08:03:03;;;;;;;1.13;0.32;;;;;;;10.48;100.00;99636.94;5044426;28;20505;-50
2022/10/15 08:05:29;;;;;;;4.20;1.65;;;;;;;10.55;100.00;99633.44;5045475;28;21137;-50
2022/10/15 08:07:54;;;;;;;2.92;0.70;;;;;;;10.58;100.00;99644.41;5041322;28;20033;-55
2022/10/15 08:10:19;;;;;;;4.60;0.93;;;;;;;10.68;100.00;99636.81;5040451;28;20044;-57
2022/10/15 08:12:45;;;;;;;3.50;0.52;;;;;;;10.76;100.00;99642.91;5036781;28;20124;-53
2022/10/15 08:15:10;;;;;;;4.05;0.73;;;;;;;10.87;100.00;99644.91;5030084;28;20033;-55
2022/10/15 08:17:36;;;;;;;3.75;0.85;;;;;;;10.98;100.00;99646.06;5035696;28;20108;-57
2022/10/15 08:20:02;;;;;;;5.47;0.75;;;;;;;11.02;100.00;99642.78;5031941;28;20040;-52
2022/10/15 08:22:27;;;;;;;8.45;1.05;;;;;;;11.10;100.00;99646.97;5032317;28;20128;-51
2022/10/15 08:24:52;;;;;;;5.63;1.60;;;;;;;11.17;100.00;99654.91;5035445;28;20036;-53
2022/10/15 08:27:18;;;;;;;1.60;0.50;;;;;;;11.27;100.00;99641.97;5030692;28;20059;-51
2022/10/15 08:29:43;;;;;;;0.73;0.30;;;;;;;11.30;100.00;99642.34;5031013;28;20021;-56
2022/10/15 08:32:09;;;;;;;0.80;0.20;;;;;;;11.41;100.00;99638.19;5036122;28;20029;-52
2022/10/15 08:34:34;;;;;;;2.20;0.43;;;;;;;11.46;100.00;99634.88;5035713;28;20028;-56
2022/10/15 08:36:59;;;;;;;4.30;0.70;;;;;;;11.60;100.00;99630.28;5027664;28;20424;-56
2022/10/15 08:39:24;;;;;;;2.50;1.05;;;;;;;11.67;100.00;99625.69;5039052;28;20525;-54
2022/10/15 08:41:53;;;;;;;6.53;1.98;;;;;;;11.77;100.00;99621.53;5027738;28;20470;-55
2022/10/15 08:44:35;;;;;;;4.45;1.20;;;;;;;11.87;100.00;99618.38;5042495;28;20049;-51
2022/10/15 08:47:09;;;;;;;2.47;0.30;;;;;;;11.93;100.00;99614.84;5038766;28;20478;-52
2022/10/15 08:49:46;;;;;;;1.27;0.70;;;;;;;12.09;100.00;99607.34;5038541;28;20040;-58
2022/10/15 08:52:23;;;;;;;3.00;0.22;;;;;;;12.26;100.00;99618.16;5048185;28;20404;-51
2022/10/15 08:54:48;;;;;;;5.20;0.45;;;;;;;12.30;100.00;99612.19;5034898;28;20052;-50
2022/10/15 08:57:29;;;;;;;4.03;0.28;;;;;;;12.32;100.00;99596.84;5046867;28;20033;-51
2022/10/15 09:00:00;;;;;;;1.45;0.65;;;;;;;12.44;100.00;99592.38;5045899;28;20040;-54
2022/10/15 09:02:44;;;;;;;1.10;0.40;;;;;;;12.54;100.00;99577.72;5042845;28;20065;-54
2022/10/15 09:05:23;;;;;;;3.50;0.30;;;;;;;12.56;100.00;99575.66;5033596;28;20052;-49
2022/10/15 09:07:54;;;;;;;1.70;0.40;;;;;;;12.69;100.00;99583.44;5036183;28;20025;-55
2022/10/15 09:10:31;;;;;;;0.35;0.00;;;;;;;12.74;100.00;99582.78;5041265;28;20042;-52
2022/10/15 09:13:04;;;;;;;0.00;0.00;;;;;;;12.84;100.00;99583.84;5042801;28;20463;-55
2022/10/15 09:15:36;;;;;;;1.52;0.10;;;;;;;12.98;100.00;99588.94;5040900;28;20451;-53
2022/10/15 09:18:02;;;;;;;2.08;0.10;;;;;;;13.09;100.00;99588.19;5037940;28;20022;-52
2022/10/15 09:20:33;;;;;;;0.50;0.10;;;;;;;13.19;100.00;99590.25;5041053;28;20504;-56
2022/10/15 09:22:59;;;;;;;0.40;0.00;;;;;;;13.28;100.00;99580.94;5039879;28;20135;-54
2022/10/15 09:25:35;;;;;;;0.30;0.00;;;;;;;13.40;100.00;99576.44;5033677;28;20112;-57
2022/10/15 09:28:09;;;;;;;3.20;0.40;;;;;;;13.57;100.00;99565.06;5039067;28;20139;-56
2022/10/15 09:30:46;;;;;;;6.65;1.23;;;;;;;13.84;100.00;99576.06;5037147;28;20384;-52
2022/10/15 09:33:28;;;;;;;2.13;0.00;;;;;;;14.09;100.00;99573.09;5034045;28;20655;-53
2022/10/15 09:36:32;;;;;;;0.57;0.10;;;;;;;13.99;100.00;99556.91;5038985;28;20037;-52
2022/10/15 09:39:28;;;;;;;5.93;0.55;;;;;;;14.12;100.00;99572.63;5038474;28;20041;-51
2022/10/15 09:42:10;;;;;;;1.85;0.00;;;;;;;14.22;100.00;99566.69;5033166;28;20513;-54
2022/10/15 09:44:41;;;;;;;1.75;0.00;;;;;;;14.35;100.00;99559.22;5038758;28;20071;-52
2022/10/15 09:47:22;;;;;;;2.53;0.33;;;;;;;14.42;100.00;99575.06;5031388;28;20025;-56
2022/10/15 09:49:48;;;;;;;0.20;0.00;;;;;;;14.42;100.00;99568.94;5038011;28;20029;-51
2022/10/15 09:52:13;;;;;;;2.05;0.20;;;;;;;14.33;100.00;99571.19;5037695;28;20032;-52
2022/10/15 09:54:59;;;;;;;0.50;0.22;;;;;;;14.27;100.00;99570.25;5041322;28;20213;-51
2022/10/15 09:57:25;;;;;;;3.92;0.00;;;;;;;14.23;100.00;99595.78;5031305;28;20060;-53
2022/10/15 09:59:55;;;;;;;1.55;0.30;;;;;;;14.17;100.00;99586.88;5023708;28;20147;-54
2022/10/15 10:02:24;;;;;;;4.65;1.15;;;;;;;14.18;100.00;99588.47;5035658;28;20473;-49
2022/10/15 10:04:50;;;;;;;2.50;0.10;;;;;;;14.29;100.00;99588.69;5035979;28;20041;-49
2022/10/15 10:07:45;;;;;;;0.15;0.00;;;;;;;14.48;100.00;99582.13;5032555;28;20378;-53
2022/10/15 10:10:26;;;;;;;3.58;0.15;;;;;;;14.44;100.00;99569.50;5031957;28;20045;-55
2022/10/15 10:12:54;;;;;;;1.42;0.00;;;;;;;14.49;100.00;99561.59;5035024;28;20075;-53
2022/10/15 10:15:33;;;;;;;0.80;0.00;;;;;;;14.57;100.00;99570.06;5035255;28;20043;-53
2022/10/15 10:17:59;;;;;;;0.52;0.00;;;;;;;14.76;100.00;99551.97;5033193;28;20090;-52
2022/10/15 10:20:29;;;;;;;5.35;0.82;;;;;;;14.63;100.00;99557.59;5035041;28;20474;-55
2022/10/15 10:23:00;;;;;;;0.08;0.00;;;;;;;14.51;100.00;99564.84;5032959;28;20033;-54
2022/10/15 10:25:25;;;;;;;0.85;0.00;;;;;;;14.47;100.00;99569.84;5041374;28;20028;-49
2022/10/15 10:27:55;;;;;;;1.45;0.38;;;;;;;14.47;100.00;99566.34;5040149;28;20060;-53
2022/10/15 10:30:21;;;;;;;3.30;0.73;;;;;;;14.56;100.00;99564.94;5036852;28;20029;-53
2022/10/15 10:32:47;;;;;;;2.25;0.15;;;;;;;14.67;100.00;99563.28;5038519;28;20383;-49
2022/10/15 10:35:21;;;;;;;5.80;0.50;;;;;;;14.96;100.00;99572.84;5031515;28;20152;-54
2022/10/15 10:37:47;;;;;;;2.05;0.05;;;;;;;15.05;100.00;99567.94;5034192;28;20029;-51
2022/10/15 10:40:39;;;;;;;2.35;0.08;;;;;;;14.88;100.00;99575.13;5034891;28;20390;-50
2022/10/15 10:43:15;;;;;;;;;;;;;;;14.84;100.00;99574.78;5042522;28;20483;-52
2022/10/15 10:46:03;;;;;;;1.27;0.20;;;;;;;14.76;100.00;99583.97;5041201;28;19917;-56
2022/10/15 10:48:37;;;;;;;2.50;0.08;;;;;;;14.51;100.00;99584.31;5041702;28;20066;-49
2022/10/15 10:51:10;;;;;;;0.08;0.00;;;;;;;14.33;100.00;99589.84;5034935;28;20032;-49
2022/10/15 10:53:57;;;;;;;1.17;0.98;;;;;;;14.13;100.00;99606.25;5040729;28;20075;-57
2022/10/15 10:56:38;;;;;;;2.55;0.30;;;;;;;13.86;100.00;99616.59;5036419;28;20502;-56
2022/10/15 10:59:28;;;;;;;0.75;0.00;;;;;;;13.44;100.00;99609.53;5044672;28;20055;-56
2022/10/15 11:01:55;;;;;;;1.27;0.20;;;;;;;13.41;100.00;99614.53;5037263;28;20291;-58
2022/10/15 11:04:33;;;;;;;0.40;0.10;;;;;;;13.47;100.00;99613.59;5041471;28;20017;-57
2022/10/15 11:07:27;;;;;;;2.30;0.20;;;;;;;13.53;100.00;99612.69;5043164;28;20086;-55
2022/10/15 11:10:01;;;;;;;2.00;0.05;;;;;;;13.58;100.00;99609.28;5037691;28;20482;-57
2022/10/15 11:13:01;;;;;;;0.25;0.00;;;;;;;13.78;100.00;99617.75;5044529;28;20040;-55
2022/10/15 11:15:42;;;;;;;0.60;0.10;;;;;;;13.86;100.00;99611.25;5041422;28;20081;-58
2022/10/15 11:18:21;;;;;;;0.25;0.00;;;;;;;13.99;100.00;99612.84;5039628;28;20120;-53
2022/10/15 11:21:06;;;;;;;5.55;1.10;;;;;;;14.17;100.00;99604.72;5039413;28;20021;-55
2022/10/15 11:23:43;;;;;;;0.77;0.00;;;;;;;14.57;100.00;99615.41;5037145;28;20339;-56
2022/10/15 11:26:47;;;;;;;0.30;0.00;;;;;;;14.85;100.00;99610.31;5045687;28;20025;-56
2022/10/15 11:29:36;;;;;;;1.00;0.00;;;;;;;15.01;100.00;99607.63;5046581;28;20044;-56
2022/10/15 11:32:17;;;;;;;1.15;0.00;;;;;;;14.76;100.00;99583.97;5039512;28;20490;-57
2022/10/15 11:34:57;;;;;;;1.27;0.00;;;;;;;14.78;100.00;99597.09;5039897;28;20033;-55
2022/10/15 11:37:45;;;;;;;1.25;0.00;;;;;;;14.97;100.00;99595.00;5039715;28;20513;-57
2022/10/15 11:40:31;;;;;;;0.75;0.00;;;;;;;14.92;100.00;99582.41;5038190;28;20100;-57
2022/10/15 11:43:01;;;;;;;0.60;0.05;;;;;;;14.97;100.00;99590.50;5036443;28;20044;-53